Time;durP1;ratioP1;P1;durP2;ratioP2;P2;SDS_P1;SDS_P2;PMS_P1;PMS_P2;Temp;Humidity;BMP_temperature;BMP_pressure;BME280_temperature;BME280_humidity;BME280_pressure;Samples;Min_cycle;Max_cycle;Signal;HPM_P1;HPM_P2
2022/01/01 00:02:14;;;;;;;18.42;10.38;;;13.00;99.90;;;;;;5034344;28;20034;-59
2022/01/01 00:04:42;;;;;;;17.73;10.35;;;13.00;99.90;;;;;;5032705;28;20032;-59
2022/01/01 00:07:11;;;;;;;17.90;9.43;;;13.00;99.90;;;;;;5034123;28;20071;-59
2022/01/01 00:09:38;;;;;;;21.30;10.45;;;13.00;99.90;;;;;;5034046;28;20029;-59
2022/01/01 00:12:04;;;;;;;20.60;10.20;;;13.00;99.90;;;;;;5033359;28;20025;-59
2022/01/01 00:14:30;;;;;;;15.98;9.25;;;13.10;99.90;;;;;;5034028;28;20490;-59
2022/01/01 00:16:56;;;;;;;16.55;9.63;;;13.10;99.90;;;;;;5034209;28;20079;-59
2022/01/01 00:19:22;;;;;;;18.27;9.80;;;13.00;99.90;;;;;;5033883;28;20471;-59
2022/01/01 00:21:47;;;;;;;20.70;11.10;;;13.00;99.90;;;;;;5033839;28;20037;-59
2022/01/01 00:24:13;;;;;;;21.60;9.63;;;13.00;99.90;;;;;;5033880;28;20104;-59
2022/01/01 00:26:38;;;;;;;19.50;9.68;;;13.00;99.90;;;;;;5033263;28;20045;-59
2022/01/01 00:29:04;;;;;;;25.70;11.40;;;13.00;99.90;;;;;;5033772;28;20033;-59
2022/01/01 00:31:30;;;;;;;19.02;10.85;;;12.90;99.90;;;;;;5033551;28;20025;-59
2022/01/01 00:33:57;;;;;;;16.48;10.38;;;12.80;99.90;;;;;;5033380;28;20487;-59
2022/01/01 00:36:23;;;;;;;16.05;9.77;;;12.70;99.90;;;;;;5033294;28;20476;-59
2022/01/01 00:38:49;;;;;;;21.33;11.48;;;12.70;99.90;;;;;;5031874;28;20120;-59
2022/01/01 00:41:14;;;;;;;17.52;10.93;;;12.60;99.90;;;;;;5033641;28;20379;-59
2022/01/01 00:43:40;;;;;;;18.70;11.40;;;12.60;99.90;;;;;;5033253;28;20113;-59
2022/01/01 00:46:05;;;;;;;22.13;10.52;;;12.50;99.90;;;;;;5032017;28;20021;-59
2022/01/01 00:48:31;;;;;;;23.13;11.48;;;12.50;99.90;;;;;;5032493;28;20021;-59
2022/01/01 00:50:57;;;;;;;19.73;11.43;;;12.50;99.90;;;;;;5033876;28;20144;-59
2022/01/01 00:53:23;;;;;;;22.25;11.18;;;12.40;99.90;;;;;;5033881;28;20036;-59
2022/01/01 00:55:49;;;;;;;22.08;11.65;;;12.40;99.90;;;;;;5034303;28;20030;-60
2022/01/01 00:58:14;;;;;;;20.90;11.02;;;12.40;99.90;;;;;;5034058;28;20490;-60
2022/01/01 01:00:40;;;;;;;16.70;10.35;;;12.40;99.90;;;;;;5033639;28;20029;-59
2022/01/01 01:03:12;;;;;;;20.33;10.82;;;12.40;99.90;;;;;;5033657;28;20120;-59
2022/01/01 01:05:39;;;;;;;22.05;9.93;;;12.40;99.90;;;;;;5032425;28;20356;-59
2022/01/01 01:08:07;;;;;;;16.55;10.00;;;12.50;99.90;;;;;;5033181;28;20025;-59
2022/01/01 01:10:32;;;;;;;19.00;9.80;;;12.50;99.90;;;;;;5033768;28;20028;-59
2022/01/01 01:12:58;;;;;;;21.77;10.38;;;12.60;99.90;;;;;;5032330;28;20025;-59
2022/01/01 01:15:24;;;;;;;20.52;10.23;;;12.60;99.90;;;;;;5033704;28;20035;-59
2022/01/01 01:17:52;;;;;;;18.75;10.27;;;12.60;99.90;;;;;;5033849;28;20356;-59
2022/01/01 01:20:20;;;;;;;17.98;10.00;;;12.70;99.90;;;;;;5033539;28;20017;-60
2022/01/01 01:22:46;;;;;;;17.83;10.13;;;12.70;99.90;;;;;;5031884;28;20033;-59
2022/01/01 01:25:13;;;;;;;19.10;10.20;;;12.70;99.90;;;;;;5031239;28;20025;-59
2022/01/01 01:27:39;;;;;;;19.23;10.27;;;12.70;99.90;;;;;;5032978;28;20068;-60
2022/01/01 01:30:13;;;;;;;16.77;9.63;;;12.70;99.90;;;;;;5033109;28;20014;-59
2022/01/01 01:32:39;;;;;;;18.67;9.50;;;12.80;99.90;;;;;;5032859;28;20025;-59
2022/01/01 01:35:06;;;;;;;22.60;9.85;;;12.70;99.90;;;;;;5031474;28;20025;-59
2022/01/01 01:37:32;;;;;;;15.23;9.52;;;12.80;99.90;;;;;;5031449;28;20033;-59
2022/01/01 01:39:58;;;;;;;18.77;9.35;;;12.80;99.90;;;;;;5032508;28;20033;-59
2022/01/01 01:42:26;;;;;;;20.33;9.98;;;12.80;99.90;;;;;;5032435;28;20029;-59
2022/01/01 01:44:53;;;;;;;19.08;9.82;;;12.80;99.90;;;;;;5032398;28;20029;-59
2022/01/01 01:47:28;;;;;;;16.75;8.90;;;12.80;99.90;;;;;;5032324;28;20368;-59
2022/01/01 01:49:54;;;;;;;18.02;10.05;;;12.80;99.90;;;;;;5030581;28;20036;-59
2022/01/01 01:52:20;;;;;;;18.27;9.40;;;12.80;99.90;;;;;;5031512;28;20048;-59
2022/01/01 01:54:47;;;;;;;17.30;8.82;;;12.80;99.90;;;;;;5032015;28;20036;-59
2022/01/01 01:57:13;;;;;;;15.70;9.35;;;12.80;99.90;;;;;;5032540;28;20510;-59
2022/01/01 01:59:40;;;;;;;20.80;9.23;;;12.80;99.90;;;;;;5031523;28;20479;-59
2022/01/01 02:02:07;;;;;;;18.95;8.77;;;12.70;99.90;;;;;;5031945;28;20083;-59
2022/01/01 02:04:33;;;;;;;19.63;10.07;;;12.70;99.90;;;;;;5031783;28;20029;-59
2022/01/01 02:06:59;;;;;;;15.10;8.85;;;12.70;99.90;;;;;;5032053;28;20097;-59
2022/01/01 02:09:25;;;;;;;17.45;8.63;;;12.70;99.90;;;;;;5031949;28;20017;-59
2022/01/01 02:11:52;;;;;;;18.20;9.23;;;12.70;99.90;;;;;;5031809;28;20029;-59
2022/01/01 02:14:33;;;;;;;20.38;10.07;;;12.60;99.90;;;;;;5030681;28;20458;-60
2022/01/01 02:19:26;;;;;;;18.23;8.25;;;12.40;99.90;;;;;;5032267;28;20294;-59
2022/01/01 02:21:59;;;;;;;18.60;8.00;;;12.40;99.90;;;;;;5032301;28;20021;-59
2022/01/01 02:24:25;;;;;;;17.27;8.63;;;12.30;99.90;;;;;;5030495;28;20475;-59
2022/01/01 02:26:51;;;;;;;16.15;8.18;;;12.20;99.90;;;;;;5031072;28;20041;-59
2022/01/01 02:29:17;;;;;;;13.55;6.38;;;12.30;99.90;;;;;;5031736;28;20029;-59
2022/01/01 02:31:43;;;;;;;14.32;7.35;;;12.30;99.90;;;;;;5031703;28;20033;-59
2022/01/01 02:34:10;;;;;;;15.05;7.13;;;12.20;99.90;;;;;;5031952;28;20037;-59
2022/01/01 02:36:42;;;;;;;18.00;7.07;;;12.10;99.90;;;;;;5034662;28;20041;-59
2022/01/01 02:39:19;;;;;;;12.90;7.00;;;12.10;99.90;;;;;;5035775;28;20128;-59
2022/01/01 02:41:47;;;;;;;16.27;7.28;;;12.10;99.90;;;;;;5034506;28;20053;-59
2022/01/01 02:44:13;;;;;;;15.80;7.13;;;12.10;99.90;;;;;;5035969;28;20106;-59
2022/01/01 02:46:39;;;;;;;16.45;7.78;;;12.10;99.90;;;;;;5035791;28;20111;-59
2022/01/01 02:49:05;;;;;;;13.65;6.40;;;12.10;99.90;;;;;;5033856;28;20113;-60
2022/01/01 02:51:31;;;;;;;13.63;6.55;;;12.10;99.90;;;;;;5033623;28;20486;-59
2022/01/01 02:53:57;;;;;;;16.10;7.05;;;12.10;99.90;;;;;;5034940;28;20036;-59
2022/01/01 02:56:23;;;;;;;14.57;7.13;;;12.10;99.90;;;;;;5033807;28;20558;-59
2022/01/01 02:58:49;;;;;;;15.05;6.80;;;12.00;99.90;;;;;;5033489;28;20115;-59
2022/01/01 03:01:15;;;;;;;13.82;6.50;;;12.00;99.90;;;;;;5035098;28;20079;-59
2022/01/01 03:03:42;;;;;;;15.68;6.70;;;11.90;99.90;;;;;;5035638;28;20509;-59
2022/01/01 03:06:08;;;;;;;12.98;6.32;;;12.00;99.90;;;;;;5035251;28;20107;-59
2022/01/01 03:08:33;;;;;;;16.48;6.32;;;12.10;99.90;;;;;;5035145;28;20060;-59
2022/01/01 03:11:02;;;;;;;14.63;6.78;;;12.20;99.90;;;;;;5035660;28;20033;-60
2022/01/01 03:13:31;;;;;;;15.48;6.22;;;12.20;99.90;;;;;;5034395;28;20075;-59
2022/01/01 03:15:57;;;;;;;16.92;6.63;;;12.20;99.90;;;;;;5035623;28;20056;-59
2022/01/01 03:18:22;;;;;;;13.32;7.28;;;12.30;99.90;;;;;;5035047;28;20026;-60
2022/01/01 03:20:48;;;;;;;12.45;6.50;;;12.20;99.90;;;;;;5033935;28;20034;-59
2022/01/01 03:23:13;;;;;;;14.70;6.75;;;12.10;99.90;;;;;;5035272;28;20429;-59
2022/01/01 03:25:39;;;;;;;17.20;6.93;;;12.10;99.90;;;;;;5034892;28;20530;-60
2022/01/01 03:28:05;;;;;;;18.20;8.05;;;12.10;99.90;;;;;;5033688;28;20017;-59
2022/01/01 03:30:31;;;;;;;12.63;7.35;;;12.00;99.90;;;;;;5033932;28;20025;-59
2022/01/01 03:32:57;;;;;;;25.40;9.07;;;11.90;99.90;;;;;;5034506;28;20048;-59
2022/01/01 03:35:23;;;;;;;21.70;8.95;;;11.80;99.90;;;;;;5033882;28;20029;-59
2022/01/01 03:37:48;;;;;;;20.67;8.60;;;11.70;99.90;;;;;;5035107;28;20017;-59
2022/01/01 03:40:14;;;;;;;18.77;9.00;;;11.70;99.90;;;;;;5034620;28;20044;-59
2022/01/01 03:42:40;;;;;;;15.30;8.45;;;11.60;99.90;;;;;;5034905;28;20099;-59
2022/01/01 03:45:07;;;;;;;20.98;9.13;;;11.60;99.90;;;;;;5033747;28;20025;-60
2022/01/01 03:47:34;;;;;;;16.70;7.85;;;11.50;99.90;;;;;;5033816;28;20104;-59
2022/01/01 03:49:59;;;;;;;20.50;9.27;;;11.50;99.90;;;;;;5035073;28;20026;-59
2022/01/01 03:52:25;;;;;;;18.35;8.25;;;11.60;99.90;;;;;;5034744;28;20035;-59
2022/01/01 03:54:51;;;;;;;17.88;8.52;;;11.50;99.90;;;;;;5034865;28;20052;-59
2022/01/01 03:57:16;;;;;;;17.95;8.93;;;11.50;99.90;;;;;;5033188;28;20083;-59
2022/01/01 03:59:42;;;;;;;14.38;7.60;;;11.40;99.90;;;;;;5034663;28;20025;-59
2022/01/01 04:02:08;;;;;;;17.48;8.07;;;11.40;99.90;;;;;;5033477;28;20035;-59
2022/01/01 04:04:33;;;;;;;17.95;8.75;;;11.40;99.90;;;;;;5034887;28;20030;-59
2022/01/01 04:07:00;;;;;;;18.73;8.63;;;11.30;99.90;;;;;;5034658;28;20080;-59
2022/01/01 04:09:26;;;;;;;15.32;9.38;;;11.30;99.90;;;;;;5034533;28;20503;-59
2022/01/01 04:11:51;;;;;;;19.75;9.70;;;11.30;99.90;;;;;;5033847;28;20033;-59
2022/01/01 04:14:17;;;;;;;16.90;9.52;;;11.20;99.90;;;;;;5034497;28;20600;-59
2022/01/01 04:16:43;;;;;;;22.10;9.50;;;11.20;99.90;;;;;;5034716;28;20052;-59
2022/01/01 04:19:09;;;;;;;18.50;9.88;;;11.20;99.90;;;;;;5034102;28;20059;-59
2022/01/01 04:21:35;;;;;;;20.52;10.75;;;11.20;99.90;;;;;;5034060;28;20029;-59
2022/01/01 04:24:02;;;;;;;18.38;10.45;;;11.10;99.90;;;;;;5034353;28;20017;-59
2022/01/01 04:26:28;;;;;;;19.15;10.50;;;11.10;99.90;;;;;;5033868;28;20037;-59
2022/01/01 04:28:53;;;;;;;21.70;12.20;;;11.10;99.90;;;;;;5034007;28;20037;-60
2022/01/01 04:31:19;;;;;;;22.25;11.23;;;11.10;99.90;;;;;;5033869;28;20029;-59
2022/01/01 04:33:45;;;;;;;20.20;12.10;;;11.10;99.90;;;;;;5033795;28;20486;-59
2022/01/01 04:36:11;;;;;;;24.40;12.35;;;11.10;99.90;;;;;;5033830;28;20030;-59
2022/01/01 04:38:39;;;;;;;23.60;12.80;;;11.00;99.90;;;;;;5033658;28;20033;-59
2022/01/01 04:41:11;;;;;;;25.15;13.30;;;11.00;99.90;;;;;;5033750;28;20017;-59
2022/01/01 04:43:37;;;;;;;24.15;13.52;;;11.00;99.90;;;;;;5033820;28;20014;-59
2022/01/01 04:46:03;;;;;;;25.20;14.93;;;11.00;99.90;;;;;;5033211;28;20097;-59
2022/01/01 04:48:28;;;;;;;26.23;15.10;;;11.00;99.90;;;;;;5033610;28;20029;-59
2022/01/01 04:50:54;;;;;;;28.15;14.90;;;10.90;99.90;;;;;;5033188;28;20426;-59
2022/01/01 04:53:20;;;;;;;22.05;14.15;;;10.90;99.90;;;;;;5033584;28;20029;-59
2022/01/01 04:55:47;;;;;;;24.98;14.20;;;10.90;99.90;;;;;;5031652;28;20036;-59
2022/01/01 04:58:13;;;;;;;32.22;15.85;;;10.90;99.90;;;;;;5033304;28;20025;-59
2022/01/01 05:00:38;;;;;;;23.67;14.65;;;10.90;99.90;;;;;;5033204;28;20441;-59
2022/01/01 05:03:04;;;;;;;25.75;15.30;;;10.80;99.90;;;;;;5033144;28;20025;-59
2022/01/01 05:05:30;;;;;;;26.50;16.15;;;10.80;99.90;;;;;;5033538;28;20022;-59
2022/01/01 05:07:56;;;;;;;26.75;15.68;;;10.80;99.90;;;;;;5033100;28;20097;-60
2022/01/01 05:10:24;;;;;;;24.40;15.43;;;10.70;99.90;;;;;;5033103;28;20489;-59
2022/01/01 05:12:50;;;;;;;28.55;15.95;;;10.70;99.90;;;;;;5033138;28;20018;-59
2022/01/01 05:15:16;;;;;;;26.27;15.90;;;10.80;99.90;;;;;;5032776;28;20049;-59
2022/01/01 05:17:42;;;;;;;26.50;16.90;;;10.80;99.90;;;;;;5032546;28;20471;-60
2022/01/01 05:20:08;;;;;;;25.08;16.13;;;10.80;99.90;;;;;;5032747;28;20470;-59
2022/01/01 05:22:33;;;;;;;28.60;16.50;;;10.80;99.90;;;;;;5032669;28;20025;-59
2022/01/01 05:25:00;;;;;;;24.00;16.75;;;10.80;99.90;;;;;;5033043;28;20052;-59
2022/01/01 05:27:32;;;;;;;22.45;15.63;;;10.80;99.90;;;;;;5032838;28;20545;-59
2022/01/01 05:29:58;;;;;;;;;;;10.80;99.90;;;;;;5032881;28;20018;-59
2022/01/01 05:32:24;;;;;;;25.73;15.52;;;10.70;99.90;;;;;;5032478;28;20277;-59
2022/01/01 05:34:49;;;;;;;28.00;17.05;;;10.60;99.90;;;;;;5032829;28;20105;-59
2022/01/01 05:37:15;;;;;;;27.08;17.30;;;10.70;99.90;;;;;;5032523;28;20056;-59
2022/01/01 05:39:41;;;;;;;35.80;18.17;;;10.60;99.90;;;;;;5032800;28;20034;-59
2022/01/01 05:42:07;;;;;;;31.77;18.52;;;10.60;99.90;;;;;;5032984;28;20475;-59
2022/01/01 05:44:33;;;;;;;30.40;18.17;;;10.50;99.90;;;;;;5031352;28;20102;-59
2022/01/01 05:46:59;;;;;;;28.23;18.25;;;10.50;99.90;;;;;;5032235;28;20026;-60
2022/01/01 05:49:24;;;;;;;27.67;17.77;;;10.50;99.90;;;;;;5032553;28;20445;-59
2022/01/01 05:51:50;;;;;;;30.40;17.90;;;10.40;99.90;;;;;;5031030;28;20021;-59
2022/01/01 05:54:16;;;;;;;32.40;19.00;;;10.40;99.90;;;;;;5032557;28;20037;-60
2022/01/01 05:56:41;;;;;;;29.25;17.63;;;10.40;99.90;;;;;;5032077;28;20022;-60
2022/01/01 05:59:07;;;;;;;35.03;19.05;;;10.40;99.90;;;;;;5014827;28;20179;-60
2022/01/01 06:01:33;;;;;;;33.60;18.92;;;10.30;99.90;;;;;;5032391;28;20052;-60
2022/01/01 06:03:58;;;;;;;31.83;18.45;;;10.30;99.90;;;;;;5030904;28;20383;-60
2022/01/01 06:06:24;;;;;;;31.58;17.67;;;10.30;99.90;;;;;;5032244;28;20039;-60
2022/01/01 06:08:50;;;;;;;30.88;17.88;;;10.30;99.90;;;;;;5032580;28;20034;-59
2022/01/01 06:11:15;;;;;;;30.25;17.70;;;10.30;99.90;;;;;;5031740;28;20037;-59
2022/01/01 06:13:41;;;;;;;33.45;19.52;;;10.30;99.90;;;;;;5032505;28;20036;-59
2022/01/01 06:16:06;;;;;;;35.65;19.42;;;10.20;99.90;;;;;;5032166;28;20483;-60
2022/01/01 06:18:32;;;;;;;38.50;19.83;;;10.20;99.90;;;;;;5032213;28;20068;-60
2022/01/01 06:20:58;;;;;;;36.88;18.67;;;10.20;99.90;;;;;;5032285;28;20368;-59
2022/01/01 06:23:23;;;;;;;35.33;19.42;;;10.10;99.90;;;;;;5031139;28;20029;-59
2022/01/01 06:25:49;;;;;;;32.97;20.92;;;10.10;99.90;;;;;;5033174;28;20045;-60
2022/01/01 06:28:15;;;;;;;32.03;19.67;;;10.10;99.90;;;;;;5031777;28;20540;-59
2022/01/01 06:30:40;;;;;;;35.08;20.30;;;10.10;99.90;;;;;;5029926;28;20029;-60
2022/01/01 06:33:14;;;;;;;36.38;20.80;;;10.10;99.90;;;;;;5031400;28;20045;-60
2022/01/01 06:35:44;;;;;;;36.35;20.88;;;10.10;99.90;;;;;;5030135;28;20025;-60
2022/01/01 06:38:10;;;;;;;33.67;21.42;;;10.20;99.90;;;;;;5031614;28;20033;-59
2022/01/01 06:40:39;;;;;;;42.65;24.00;;;10.30;99.90;;;;;;5031569;28;20075;-59
2022/01/01 06:43:06;;;;;;;39.78;22.90;;;10.30;99.90;;;;;;5031993;28;20017;-59
2022/01/01 06:45:32;;;;;;;40.53;23.73;;;10.40;99.90;;;;;;5031961;28;20039;-59
2022/01/01 06:47:57;;;;;;;37.78;24.27;;;10.50;99.90;;;;;;5032174;28;20092;-59
2022/01/01 06:50:23;;;;;;;38.55;22.73;;;10.50;99.90;;;;;;5030296;28;20129;-59
2022/01/01 06:52:49;;;;;;;34.17;21.30;;;10.50;99.90;;;;;;5031105;28;20030;-59
2022/01/01 06:55:15;;;;;;;38.00;22.02;;;10.50;99.90;;;;;;5031179;28;20045;-59
2022/01/01 06:57:42;;;;;;;33.40;22.80;;;10.60;99.90;;;;;;5031263;28;20053;-60
2022/01/01 07:00:09;;;;;;;40.28;23.42;;;10.60;99.90;;;;;;5031173;28;20037;-60
2022/01/01 07:02:39;;;;;;;39.63;23.77;;;10.60;99.90;;;;;;5030504;28;20033;-59
2022/01/01 07:05:06;;;;;;;37.20;20.95;;;10.70;99.90;;;;;;5031982;28;20695;-59
2022/01/01 07:07:31;;;;;;;43.60;25.50;;;10.70;99.90;;;;;;5031750;28;20057;-59
2022/01/01 07:09:57;;;;;;;40.53;24.02;;;10.70;99.90;;;;;;5031353;28;20052;-59
2022/01/01 07:12:22;;;;;;;40.58;22.48;;;10.70;99.90;;;;;;5031271;28;20061;-59
2022/01/01 07:14:48;;;;;;;42.55;24.52;;;10.70;99.90;;;;;;5031750;28;20030;-59
2022/01/01 07:17:14;;;;;;;40.88;24.45;;;10.70;99.90;;;;;;5032034;28;20026;-59
2022/01/01 07:19:39;;;;;;;41.40;24.05;;;10.70;99.90;;;;;;5031568;28;20030;-59
2022/01/01 07:22:05;;;;;;;45.20;24.35;;;10.70;99.90;;;;;;5032039;28;20034;-59
2022/01/01 07:24:30;;;;;;;43.63;22.67;;;10.70;99.90;;;;;;5035154;28;20403;-59
2022/01/01 07:26:56;;;;;;;45.22;24.02;;;10.70;99.90;;;;;;5035613;28;20049;-59
2022/01/01 07:29:22;;;;;;;37.17;21.55;;;10.70;99.90;;;;;;5034720;28;20048;-59
2022/01/01 07:31:48;;;;;;;44.28;23.77;;;10.80;99.90;;;;;;5035593;28;20138;-59
2022/01/01 07:34:13;;;;;;;39.53;23.25;;;10.70;99.90;;;;;;5035074;28;20057;-59
2022/01/01 07:36:39;;;;;;;41.72;20.65;;;10.80;99.90;;;;;;5035601;28;20028;-60
2022/01/01 07:39:05;;;;;;;45.55;24.95;;;10.80;99.90;;;;;;5035245;28;20055;-59
2022/01/01 07:41:30;;;;;;;38.60;19.15;;;10.80;99.90;;;;;;5034802;28;20037;-60
2022/01/01 07:43:56;;;;;;;40.22;21.88;;;10.80;99.90;;;;;;5035330;28;20026;-59
2022/01/01 07:46:21;;;;;;;39.40;22.83;;;10.80;99.90;;;;;;5035157;28;20025;-59
2022/01/01 07:48:47;;;;;;;41.33;22.02;;;10.80;99.90;;;;;;5035290;28;20029;-59
2022/01/01 07:51:12;;;;;;;37.78;18.52;;;10.80;99.90;;;;;;5034769;28;20033;-65
2022/01/01 07:53:38;;;;;;;35.47;18.60;;;10.80;99.90;;;;;;5034990;28;20029;-59
2022/01/01 07:56:04;;;;;;;34.00;19.33;;;10.80;99.90;;;;;;5035071;28;20378;-59
2022/01/01 07:58:31;;;;;;;37.83;20.88;;;10.80;99.90;;;;;;5033828;28;20034;-58
2022/01/01 08:00:57;;;;;;;36.45;21.17;;;10.80;99.90;;;;;;5033883;28;20308;-59
2022/01/01 08:03:23;;;;;;;32.30;18.48;;;10.80;99.90;;;;;;5035117;28;20017;-59
2022/01/01 08:05:48;;;;;;;35.10;20.95;;;10.90;99.90;;;;;;5034911;28;20532;-59
2022/01/01 08:08:14;;;;;;;27.25;16.27;;;10.90;99.90;;;;;;5034480;28;20033;-58
2022/01/01 08:10:40;;;;;;;31.92;19.52;;;10.90;99.90;;;;;;5033338;28;20029;-58
2022/01/01 08:13:08;;;;;;;31.77;19.45;;;10.90;99.90;;;;;;5034751;28;20370;-58
2022/01/01 08:15:33;;;;;;;29.45;19.08;;;10.90;99.90;;;;;;5034462;28;20018;-59
2022/01/01 08:17:59;;;;;;;26.88;17.05;;;11.00;99.90;;;;;;5034456;28;20096;-59
2022/01/01 08:20:24;;;;;;;27.48;17.23;;;11.00;99.90;;;;;;5034948;28;20028;-59
2022/01/01 08:22:50;;;;;;;31.60;18.83;;;11.00;99.90;;;;;;5032471;28;20026;-59
2022/01/01 08:25:16;;;;;;;28.05;18.17;;;10.90;99.90;;;;;;5034897;28;20025;-59
2022/01/01 08:27:42;;;;;;;29.33;16.98;;;11.00;99.90;;;;;;5033950;28;20562;-59
2022/01/01 08:30:09;;;;;;;25.27;16.95;;;11.00;99.90;;;;;;5033919;28;20113;-59
2022/01/01 08:32:35;;;;;;;24.85;16.60;;;11.00;99.90;;;;;;5034192;28;20033;-60
2022/01/01 08:35:00;;;;;;;26.00;16.42;;;11.00;99.90;;;;;;5034321;28;20033;-59
2022/01/01 08:37:26;;;;;;;25.02;16.27;;;11.00;99.90;;;;;;5034851;28;20036;-59
2022/01/01 08:39:52;;;;;;;26.48;15.38;;;11.00;99.90;;;;;;5034968;28;20064;-59
2022/01/01 08:42:18;;;;;;;23.23;15.15;;;11.00;99.90;;;;;;5033493;28;20029;-59
2022/01/01 08:44:44;;;;;;;21.40;15.63;;;11.10;99.90;;;;;;5034192;28;20033;-59
2022/01/01 08:47:10;;;;;;;22.05;14.48;;;11.00;99.90;;;;;;5034167;28;20032;-58
2022/01/01 08:49:35;;;;;;;24.95;13.98;;;11.00;99.90;;;;;;5034716;28;20398;-59
2022/01/01 08:52:01;;;;;;;21.55;12.77;;;11.10;99.90;;;;;;5034129;28;20036;-59
2022/01/01 08:54:27;;;;;;;23.67;14.38;;;11.10;99.90;;;;;;5034000;28;20036;-59
2022/01/01 08:56:52;;;;;;;20.33;14.43;;;11.10;99.90;;;;;;5033971;28;20029;-59
2022/01/01 08:59:18;;;;;;;23.90;15.68;;;11.10;99.90;;;;;;5034196;28;20121;-59
2022/01/01 09:01:44;;;;;;;21.83;14.23;;;11.10;99.90;;;;;;5033855;28;20029;-59
2022/01/01 09:04:10;;;;;;;17.50;12.88;;;11.10;99.90;;;;;;5033722;28;20113;-60
2022/01/01 09:06:35;;;;;;;17.67;11.93;;;11.10;99.90;;;;;;5033853;28;20028;-60
2022/01/01 09:09:01;;;;;;;18.23;11.77;;;11.10;99.90;;;;;;5032622;28;20667;-60
2022/01/01 09:11:27;;;;;;;16.60;11.80;;;11.10;99.90;;;;;;5033696;28;20104;-60
2022/01/01 09:13:52;;;;;;;15.75;10.80;;;11.20;99.90;;;;;;5031909;28;20395;-59
2022/01/01 09:16:22;;;;;;;11.75;8.63;;;11.20;99.90;;;;;;5033873;28;20034;-60
2022/01/01 09:18:48;;;;;;;16.15;11.63;;;11.10;99.90;;;;;;5033324;28;20087;-59
2022/01/01 09:21:14;;;;;;;17.30;10.10;;;11.10;99.90;;;;;;5032969;28;20017;-59
2022/01/01 09:23:40;;;;;;;11.70;8.23;;;11.20;99.90;;;;;;5033611;28;20498;-59
2022/01/01 09:26:07;;;;;;;14.90;10.73;;;11.20;99.90;;;;;;5032179;28;20037;-59
2022/01/01 09:28:34;;;;;;;13.90;10.13;;;11.20;99.90;;;;;;5033462;28;20091;-59
2022/01/01 09:31:01;;;;;;;16.30;11.25;;;11.30;99.90;;;;;;5033362;28;20022;-59
2022/01/01 09:33:29;;;;;;;14.07;9.50;;;11.30;99.90;;;;;;5032673;28;20482;-59
2022/01/01 09:36:04;;;;;;;13.23;10.02;;;11.30;99.90;;;;;;5031207;28;20052;-59
2022/01/01 09:38:30;;;;;;;16.05;11.57;;;11.40;99.90;;;;;;5032581;28;20048;-59
2022/01/01 09:40:57;;;;;;;17.45;11.77;;;11.40;99.90;;;;;;5032694;28;20460;-59
2022/01/01 09:43:25;;;;;;;18.00;11.55;;;11.40;99.90;;;;;;5032715;28;20518;-59
2022/01/01 09:45:53;;;;;;;17.40;11.70;;;11.40;99.90;;;;;;5032907;28;20056;-60
2022/01/01 09:48:21;;;;;;;17.25;10.80;;;11.40;99.90;;;;;;5032975;28;20025;-59
2022/01/01 09:50:56;;;;;;;16.13;10.35;;;11.40;99.90;;;;;;5033206;28;20014;-59
2022/01/01 09:53:24;;;;;;;15.35;11.30;;;11.30;99.90;;;;;;5033175;28;20037;-59
2022/01/01 09:55:50;;;;;;;13.38;8.15;;;11.40;99.90;;;;;;5033392;28;20159;-59
2022/01/01 09:58:20;;;;;;;11.90;9.45;;;11.40;99.90;;;;;;5032923;28;20021;-57
2022/01/01 10:00:45;;;;;;;9.38;6.80;;;11.40;99.90;;;;;;5032555;28;20021;-59
2022/01/01 10:03:13;;;;;;;11.52;7.93;;;11.40;99.90;;;;;;5032987;28;20101;-59
2022/01/01 10:06:13;;;;;;;10.93;9.13;;;11.50;99.90;;;;;;5032777;28;20056;-59
2022/01/01 10:08:54;;;;;;;10.25;7.22;;;11.50;99.90;;;;;;5032965;28;20101;-58
2022/01/01 10:11:21;;;;;;;8.18;7.05;;;11.60;99.90;;;;;;5031431;28;20025;-58
2022/01/01 10:13:47;;;;;;;10.73;8.30;;;11.60;99.90;;;;;;5033060;28;20498;-58
2022/01/01 10:16:14;;;;;;;12.48;9.32;;;11.60;99.90;;;;;;5031491;28;20025;-59
2022/01/01 10:18:42;;;;;;;9.45;8.02;;;11.70;99.90;;;;;;5032326;28;20490;-59
2022/01/01 10:21:10;;;;;;;11.35;8.52;;;11.80;99.90;;;;;;5032196;28;20513;-58
2022/01/01 10:23:39;;;;;;;10.20;8.20;;;11.80;99.90;;;;;;5032419;28;20498;-59
2022/01/01 10:29:06;;;;;;;11.40;7.28;;;11.90;99.90;;;;;;5033117;28;20084;-59
2022/01/01 10:31:33;;;;;;;10.85;8.70;;;11.90;99.90;;;;;;5031327;28;20022;-59
2022/01/01 10:33:59;;;;;;;9.10;7.32;;;12.10;99.90;;;;;;5032074;28;20021;-59
2022/01/01 10:36:27;;;;;;;8.55;7.10;;;12.40;99.90;;;;;;5031402;28;20041;-59
2022/01/01 10:39:05;;;;;;;13.13;7.72;;;12.50;99.90;;;;;;5031807;28;20433;-59
2022/01/01 10:41:43;;;;;;;10.35;8.07;;;12.60;99.90;;;;;;5031736;28;20410;-59
2022/01/01 10:44:09;;;;;;;9.52;6.25;;;12.60;99.90;;;;;;5031708;28;20036;-59
2022/01/01 10:46:38;;;;;;;8.55;7.18;;;12.70;99.90;;;;;;5030907;28;20029;-58
2022/01/01 10:49:30;;;;;;;8.88;6.88;;;12.70;99.90;;;;;;5031174;28;20033;-58
2022/01/01 10:52:14;;;;;;;9.43;6.43;;;12.60;99.90;;;;;;5031983;28;20029;-58
2022/01/01 10:55:06;;;;;;;8.52;5.57;;;12.40;99.90;;;;;;5032275;28;20033;-58
2022/01/01 10:57:43;;;;;;;9.75;6.70;;;12.40;99.90;;;;;;5034796;28;20124;-58
2022/01/01 11:00:09;;;;;;;11.48;6.90;;;12.30;99.90;;;;;;5036143;28;20044;-58
2022/01/01 11:02:35;;;;;;;10.70;6.95;;;12.30;99.90;;;;;;5035596;28;20060;-58
2022/01/01 11:05:03;;;;;;;8.55;6.00;;;12.40;99.90;;;;;;5034697;28;20108;-59
2022/01/01 11:07:30;;;;;;;8.40;6.93;;;12.40;99.90;;;;;;5036065;28;20382;-59
2022/01/01 11:09:57;;;;;;;9.10;6.78;;;12.50;99.90;;;;;;5036017;28;20025;-59
2022/01/01 11:12:27;;;;;;;10.30;6.60;;;12.50;99.90;;;;;;5035277;28;20024;-59
2022/01/01 11:14:55;;;;;;;7.80;6.03;;;12.50;99.90;;;;;;5035035;28;20022;-59
2022/01/01 11:17:22;;;;;;;8.32;5.57;;;12.80;99.90;;;;;;5034881;28;20112;-59
2022/01/01 11:19:48;;;;;;;8.13;5.32;;;13.10;99.90;;;;;;5035159;28;20030;-58
2022/01/01 11:22:16;;;;;;;6.15;4.90;;;13.40;99.90;;;;;;5034669;28;20537;-58
2022/01/01 11:24:42;;;;;;;8.85;5.28;;;13.50;99.90;;;;;;5034624;28;20390;-58
2022/01/01 11:27:08;;;;;;;5.90;4.80;;;13.60;99.90;;;;;;5034152;28;20060;-58
2022/01/01 11:29:35;;;;;;;7.60;4.75;;;13.50;99.90;;;;;;5034905;28;20109;-58
2022/01/01 11:32:03;;;;;;;7.57;5.18;;;13.60;99.90;;;;;;5034489;28;20084;-59
2022/01/01 11:34:35;;;;;;;7.05;5.18;;;13.70;99.90;;;;;;5033918;28;20107;-58
2022/01/01 11:37:01;;;;;;;5.10;4.22;;;13.70;99.90;;;;;;5034612;28;20025;-58
2022/01/01 11:39:27;;;;;;;8.10;4.60;;;13.90;99.90;;;;;;5034308;28;20029;-59
2022/01/01 11:42:11;;;;;;;7.25;4.80;;;13.90;99.90;;;;;;5034250;28;20112;-58
2022/01/01 11:44:41;;;;;;;5.90;4.78;;;13.80;99.90;;;;;;5034637;28;20056;-58
2022/01/01 11:47:14;;;;;;;5.97;4.20;;;14.00;99.90;;;;;;5034086;28;20017;-59
2022/01/01 11:49:40;;;;;;;6.00;3.83;;;14.40;99.90;;;;;;5034293;28;20029;-59
2022/01/01 11:52:06;;;;;;;5.43;4.13;;;14.60;99.90;;;;;;5032855;28;20036;-59
2022/01/01 11:54:33;;;;;;;5.28;3.67;;;14.50;99.90;;;;;;5034316;28;20032;-59
2022/01/01 11:57:06;;;;;;;7.93;3.92;;;14.50;99.90;;;;;;5034040;28;20053;-60
2022/01/01 11:59:38;;;;;;;4.65;3.95;;;14.90;99.90;;;;;;5032550;28;20030;-60
2022/01/01 12:02:19;;;;;;;5.37;3.93;;;14.90;99.90;;;;;;5033577;28;20021;-60
2022/01/01 12:04:47;;;;;;;6.50;3.20;;;15.20;99.90;;;;;;5033084;28;20021;-60
2022/01/01 12:07:17;;;;;;;4.20;3.80;;;15.50;99.90;;;;;;5033219;28;20079;-59
2022/01/01 12:10:07;;;;;;;5.43;3.58;;;16.00;99.90;;;;;;5032824;28;20399;-60
2022/01/01 12:12:54;;;;;;;6.40;3.55;;;16.50;99.90;;;;;;5032815;28;20413;-61
2022/01/01 12:15:24;;;;;;;5.93;3.28;;;16.90;99.90;;;;;;5032788;28;20390;-60
2022/01/01 12:18:10;;;;;;;7.10;3.20;;;16.70;99.90;;;;;;5034030;28;20056;-60
2022/01/01 12:20:51;;;;;;;4.88;3.28;;;16.20;99.90;;;;;;5031951;28;20057;-60
2022/01/01 12:23:23;;;;;;;5.20;3.47;;;15.80;99.90;;;;;;5033500;28;20051;-60
2022/01/01 12:25:51;;;;;;;4.82;3.47;;;15.80;99.90;;;;;;5033962;28;20556;-60
2022/01/01 12:28:21;;;;;;;4.05;2.90;;;16.00;99.90;;;;;;5031943;28;20026;-60
2022/01/01 12:30:54;;;;;;;5.88;3.25;;;16.10;99.90;;;;;;5033221;28;20032;-60
2022/01/01 12:33:26;;;;;;;4.30;3.03;;;16.20;99.90;;;;;;5032993;28;20364;-60
2022/01/01 12:35:53;;;;;;;;;;;16.40;99.90;;;;;;5033774;28;20032;-59
2022/01/01 12:38:30;;;;;;;4.38;3.42;;;16.30;99.90;;;;;;5033451;28;20247;-60
2022/01/01 12:40:58;;;;;;;4.00;2.97;;;16.50;99.90;;;;;;5033274;28;20040;-60